Terminal Aerodrome Forecast
Issued by NWS

Home | Current Version | Previous Version | Text Only | Print | Product List | Glossary On
Versions: 1 2 3 4 5 6 7 8 9 10 11 12 13
235
FTUS44 KBMX 261956 AAA
TAFEET
TAF AMD
KEET 261956Z 2620/2718 VRB03KT P6SM SCT060
     FM262100 32004KT P6SM SHRA SCT060 BKN070
      TEMPO 2622/2624 TSRA SCT030CB
     FM271500 34003KT P6SM SCT100=

USA.gov is the U.S. government's official web portal to all federal, state and local government web resources and services.